sensor_id;sensor_type;location;lat;lon;timestamp;temperature;humidity
71563;DHT22;59391;52.504;13.438;2023-01-31T00:01:33;5.80;58.90
71563;DHT22;59391;52.504;13.438;2023-01-31T00:04:08;5.80;58.80
71563;DHT22;59391;52.504;13.438;2023-01-31T00:06:44;5.80;58.80
71563;DHT22;59391;52.504;13.438;2023-01-31T00:09:16;5.70;59.20
71563;DHT22;59391;52.504;13.438;2023-01-31T00:11:42;5.80;60.20
71563;DHT22;59391;52.504;13.438;2023-01-31T00:14:08;5.80;59.80
71563;DHT22;59391;52.504;13.438;2023-01-31T00:16:35;5.80;59.70
71563;DHT22;59391;52.504;13.438;2023-01-31T00:19:02;5.80;59.70
71563;DHT22;59391;52.504;13.438;2023-01-31T00:21:29;5.70;59.20
71563;DHT22;59391;52.504;13.438;2023-01-31T00:23:57;5.70;59.30
71563;DHT22;59391;52.504;13.438;2023-01-31T00:26:29;5.70;60.10
71563;DHT22;59391;52.504;13.438;2023-01-31T00:28:57;5.70;59.60
71563;DHT22;59391;52.504;13.438;2023-01-31T00:31:26;5.70;60.20
71563;DHT22;59391;52.504;13.438;2023-01-31T00:33:54;5.70;59.90
71563;DHT22;59391;52.504;13.438;2023-01-31T00:36:27;5.70;60.70
71563;DHT22;59391;52.504;13.438;2023-01-31T00:38:58;5.70;60.80
71563;DHT22;59391;52.504;13.438;2023-01-31T00:41:28;5.60;60.50
71563;DHT22;59391;52.504;13.438;2023-01-31T00:43:54;5.70;59.40
71563;DHT22;59391;52.504;13.438;2023-01-31T00:46:21;5.70;59.40
71563;DHT22;59391;52.504;13.438;2023-01-31T00:48:48;5.70;59.60
71563;DHT22;59391;52.504;13.438;2023-01-31T00:51:13;5.60;60.20
71563;DHT22;59391;52.504;13.438;2023-01-31T00:53:39;5.60;59.90
71563;DHT22;59391;52.504;13.438;2023-01-31T00:56:11;5.60;59.60
71563;DHT22;59391;52.504;13.438;2023-01-31T00:58:39;5.60;59.80
71563;DHT22;59391;52.504;13.438;2023-01-31T01:01:19;5.70;60.60
71563;DHT22;59391;52.504;13.438;2023-01-31T01:03:49;5.60;60.00
71563;DHT22;59391;52.504;13.438;2023-01-31T01:06:15;5.70;59.90
71563;DHT22;59391;52.504;13.438;2023-01-31T01:08:41;5.70;60.20
71563;DHT22;59391;52.504;13.438;2023-01-31T01:11:13;5.70;60.10
71563;DHT22;59391;52.504;13.438;2023-01-31T01:13:41;5.70;60.60
71563;DHT22;59391;52.504;13.438;2023-01-31T01:16:13;5.80;60.00
71563;DHT22;59391;52.504;13.438;2023-01-31T01:18:41;5.80;59.60
71563;DHT22;59391;52.504;13.438;2023-01-31T01:21:15;5.80;59.70
71563;DHT22;59391;52.504;13.438;2023-01-31T01:23:46;5.70;60.30
71563;DHT22;59391;52.504;13.438;2023-01-31T01:26:18;5.80;59.60
71563;DHT22;59391;52.504;13.438;2023-01-31T01:28:46;5.80;60.00
71563;DHT22;59391;52.504;13.438;2023-01-31T01:31:14;5.90;59.70
71563;DHT22;59391;52.504;13.438;2023-01-31T01:33:43;5.90;60.70
71563;DHT22;59391;52.504;13.438;2023-01-31T01:36:21;5.90;59.80
71563;DHT22;59391;52.504;13.438;2023-01-31T01:38:53;5.90;58.80
71563;DHT22;59391;52.504;13.438;2023-01-31T01:41:20;5.90;58.90
71563;DHT22;59391;52.504;13.438;2023-01-31T01:43:59;5.90;58.60
71563;DHT22;59391;52.504;13.438;2023-01-31T01:46:35;5.90;58.80
71563;DHT22;59391;52.504;13.438;2023-01-31T01:49:30;5.90;59.00
71563;DHT22;59391;52.504;13.438;2023-01-31T01:52:02;5.90;58.30
71563;DHT22;59391;52.504;13.438;2023-01-31T01:54:42;5.90;59.10
71563;DHT22;59391;52.504;13.438;2023-01-31T01:57:15;5.90;58.90
71563;DHT22;59391;52.504;13.438;2023-01-31T01:59:57;5.90;58.20
71563;DHT22;59391;52.504;13.438;2023-01-31T02:02:35;5.90;58.40
71563;DHT22;59391;52.504;13.438;2023-01-31T02:05:11;5.90;58.50
71563;DHT22;59391;52.504;13.438;2023-01-31T02:07:43;5.80;58.60
71563;DHT22;59391;52.504;13.438;2023-01-31T02:10:19;5.90;58.60
71563;DHT22;59391;52.504;13.438;2023-01-31T02:12:52;5.90;58.70
71563;DHT22;59391;52.504;13.438;2023-01-31T02:15:20;5.90;58.90
71563;DHT22;59391;52.504;13.438;2023-01-31T02:17:47;5.90;59.10
71563;DHT22;59391;52.504;13.438;2023-01-31T02:24:05;5.90;60.20
71563;DHT22;59391;52.504;13.438;2023-01-31T02:30:14;5.90;59.80
71563;DHT22;59391;52.504;13.438;2023-01-31T02:35:57;5.90;59.80
71563;DHT22;59391;52.504;13.438;2023-01-31T02:41:34;5.90;59.30
71563;DHT22;59391;52.504;13.438;2023-01-31T02:44:22;5.90;59.50
71563;DHT22;59391;52.504;13.438;2023-01-31T02:47:32;5.90;60.20
71563;DHT22;59391;52.504;13.438;2023-01-31T02:50:28;5.90;59.20
71563;DHT22;59391;52.504;13.438;2023-01-31T02:53:47;5.90;59.20
71563;DHT22;59391;52.504;13.438;2023-01-31T02:56:18;5.90;59.30
71563;DHT22;59391;52.504;13.438;2023-01-31T02:59:29;5.90;59.50
71563;DHT22;59391;52.504;13.438;2023-01-31T03:18:43;5.60;60.20
71563;DHT22;59391;52.504;13.438;2023-01-31T03:21:38;5.60;60.30
71563;DHT22;59391;52.504;13.438;2023-01-31T03:24:20;5.50;60.70
71563;DHT22;59391;52.504;13.438;2023-01-31T03:26:51;5.50;61.20
71563;DHT22;59391;52.504;13.438;2023-01-31T03:29:20;5.50;60.80
71563;DHT22;59391;52.504;13.438;2023-01-31T03:31:57;5.40;60.40
71563;DHT22;59391;52.504;13.438;2023-01-31T03:34:44;5.40;61.40
71563;DHT22;59391;52.504;13.438;2023-01-31T03:40:25;5.40;61.40
71563;DHT22;59391;52.504;13.438;2023-01-31T03:43:19;5.30;61.50
71563;DHT22;59391;52.504;13.438;2023-01-31T03:46:04;5.30;61.90
71563;DHT22;59391;52.504;13.438;2023-01-31T03:48:45;5.20;61.60
71563;DHT22;59391;52.504;13.438;2023-01-31T03:51:26;5.20;62.00
71563;DHT22;59391;52.504;13.438;2023-01-31T03:54:24;5.20;62.30
71563;DHT22;59391;52.504;13.438;2023-01-31T03:57:08;5.20;62.50
71563;DHT22;59391;52.504;13.438;2023-01-31T03:59:55;5.20;62.30
71563;DHT22;59391;52.504;13.438;2023-01-31T04:02:39;5.20;62.50
71563;DHT22;59391;52.504;13.438;2023-01-31T04:05:31;5.10;62.40
71563;DHT22;59391;52.504;13.438;2023-01-31T04:08:05;5.10;62.90
71563;DHT22;59391;52.504;13.438;2023-01-31T04:10:54;5.10;63.70
71563;DHT22;59391;52.504;13.438;2023-01-31T04:13:22;5.10;62.80
71563;DHT22;59391;52.504;13.438;2023-01-31T04:16:11;5.10;63.30
71563;DHT22;59391;52.504;13.438;2023-01-31T04:18:45;5.10;63.60
71563;DHT22;59391;52.504;13.438;2023-01-31T04:21:31;5.10;63.30
71563;DHT22;59391;52.504;13.438;2023-01-31T04:23:59;5.10;63.10
71563;DHT22;59391;52.504;13.438;2023-01-31T04:26:24;5.10;64.40
71563;DHT22;59391;52.504;13.438;2023-01-31T04:28:50;5.10;63.80
71563;DHT22;59391;52.504;13.438;2023-01-31T04:31:16;5.10;64.30
71563;DHT22;59391;52.504;13.438;2023-01-31T04:33:41;5.10;64.00
71563;DHT22;59391;52.504;13.438;2023-01-31T04:36:08;5.10;63.90
71563;DHT22;59391;52.504;13.438;2023-01-31T04:38:34;5.10;64.70
71563;DHT22;59391;52.504;13.438;2023-01-31T04:40:59;5.10;64.40
71563;DHT22;59391;52.504;13.438;2023-01-31T04:43:25;5.10;65.00
71563;DHT22;59391;52.504;13.438;2023-01-31T04:45:50;5.10;64.50
71563;DHT22;59391;52.504;13.438;2023-01-31T04:48:16;5.10;64.50
71563;DHT22;59391;52.504;13.438;2023-01-31T04:50:42;5.10;65.10
71563;DHT22;59391;52.504;13.438;2023-01-31T04:53:07;5.10;64.40
71563;DHT22;59391;52.504;13.438;2023-01-31T04:55:34;5.20;64.20
71563;DHT22;59391;52.504;13.438;2023-01-31T04:58:00;5.10;64.20
71563;DHT22;59391;52.504;13.438;2023-01-31T05:00:26;5.10;64.80
71563;DHT22;59391;52.504;13.438;2023-01-31T05:02:52;5.10;64.50
71563;DHT22;59391;52.504;13.438;2023-01-31T05:05:19;5.10;65.00
71563;DHT22;59391;52.504;13.438;2023-01-31T05:07:45;5.10;64.70
71563;DHT22;59391;52.504;13.438;2023-01-31T05:10:11;5.10;64.60
71563;DHT22;59391;52.504;13.438;2023-01-31T05:12:37;5.10;64.90
71563;DHT22;59391;52.504;13.438;2023-01-31T05:15:03;5.10;65.20
71563;DHT22;59391;52.504;13.438;2023-01-31T05:17:32;5.10;65.00
71563;DHT22;59391;52.504;13.438;2023-01-31T05:19:58;5.10;65.10
71563;DHT22;59391;52.504;13.438;2023-01-31T05:22:25;5.20;65.50
71563;DHT22;59391;52.504;13.438;2023-01-31T05:24:50;5.10;64.90
71563;DHT22;59391;52.504;13.438;2023-01-31T05:27:17;5.20;67.00
71563;DHT22;59391;52.504;13.438;2023-01-31T05:29:44;5.20;65.20
71563;DHT22;59391;52.504;13.438;2023-01-31T05:32:10;5.20;65.80
71563;DHT22;59391;52.504;13.438;2023-01-31T05:34:37;5.20;65.70
71563;DHT22;59391;52.504;13.438;2023-01-31T05:37:03;5.20;65.40
71563;DHT22;59391;52.504;13.438;2023-01-31T05:39:29;5.20;65.20
71563;DHT22;59391;52.504;13.438;2023-01-31T05:41:55;5.20;65.50
71563;DHT22;59391;52.504;13.438;2023-01-31T05:44:21;5.20;65.70
71563;DHT22;59391;52.504;13.438;2023-01-31T05:46:47;5.20;66.50
71563;DHT22;59391;52.504;13.438;2023-01-31T05:49:13;5.20;65.80
71563;DHT22;59391;52.504;13.438;2023-01-31T05:51:40;5.30;65.10
71563;DHT22;59391;52.504;13.438;2023-01-31T05:54:06;5.30;65.60
71563;DHT22;59391;52.504;13.438;2023-01-31T05:56:32;5.30;65.40
71563;DHT22;59391;52.504;13.438;2023-01-31T05:58:59;5.40;65.50
71563;DHT22;59391;52.504;13.438;2023-01-31T06:01:27;5.40;65.90
71563;DHT22;59391;52.504;13.438;2023-01-31T06:03:53;5.40;65.50
71563;DHT22;59391;52.504;13.438;2023-01-31T06:06:19;5.50;65.20
71563;DHT22;59391;52.504;13.438;2023-01-31T06:08:45;5.50;65.50
71563;DHT22;59391;52.504;13.438;2023-01-31T06:11:12;5.50;66.00
71563;DHT22;59391;52.504;13.438;2023-01-31T06:13:39;5.60;65.80
71563;DHT22;59391;52.504;13.438;2023-01-31T06:16:09;5.60;65.40
71563;DHT22;59391;52.504;13.438;2023-01-31T06:18:35;5.60;65.60
71563;DHT22;59391;52.504;13.438;2023-01-31T06:21:01;5.60;65.20
71563;DHT22;59391;52.504;13.438;2023-01-31T06:23:27;5.70;66.10
71563;DHT22;59391;52.504;13.438;2023-01-31T06:25:53;5.70;65.40
71563;DHT22;59391;52.504;13.438;2023-01-31T06:28:20;5.70;66.30
71563;DHT22;59391;52.504;13.438;2023-01-31T06:30:46;5.80;65.10
71563;DHT22;59391;52.504;13.438;2023-01-31T06:33:12;5.80;67.30
71563;DHT22;59391;52.504;13.438;2023-01-31T06:35:39;5.80;65.80
71563;DHT22;59391;52.504;13.438;2023-01-31T06:38:05;5.80;65.80
71563;DHT22;59391;52.504;13.438;2023-01-31T06:40:32;5.90;66.10
71563;DHT22;59391;52.504;13.438;2023-01-31T06:43:00;5.90;65.90
71563;DHT22;59391;52.504;13.438;2023-01-31T06:45:26;5.90;65.40
71563;DHT22;59391;52.504;13.438;2023-01-31T06:47:51;5.90;66.50
71563;DHT22;59391;52.504;13.438;2023-01-31T06:50:17;5.90;65.80
71563;DHT22;59391;52.504;13.438;2023-01-31T06:52:43;5.90;64.60
71563;DHT22;59391;52.504;13.438;2023-01-31T06:55:09;5.90;67.10
71563;DHT22;59391;52.504;13.438;2023-01-31T06:57:36;6.00;66.70
71563;DHT22;59391;52.504;13.438;2023-01-31T07:00:10;6.00;66.00
71563;DHT22;59391;52.504;13.438;2023-01-31T07:02:36;6.00;66.00
71563;DHT22;59391;52.504;13.438;2023-01-31T07:05:02;5.90;65.00
71563;DHT22;59391;52.504;13.438;2023-01-31T07:07:27;5.90;66.10
71563;DHT22;59391;52.504;13.438;2023-01-31T07:09:53;5.90;66.20
71563;DHT22;59391;52.504;13.438;2023-01-31T07:12:19;6.00;66.50
71563;DHT22;59391;52.504;13.438;2023-01-31T07:14:44;6.00;65.90
71563;DHT22;59391;52.504;13.438;2023-01-31T07:17:10;6.00;67.80
71563;DHT22;59391;52.504;13.438;2023-01-31T07:19:35;6.00;66.40
71563;DHT22;59391;52.504;13.438;2023-01-31T07:22:01;6.00;66.90
71563;DHT22;59391;52.504;13.438;2023-01-31T07:24:27;6.00;66.80
71563;DHT22;59391;52.504;13.438;2023-01-31T07:26:52;6.00;66.70
71563;DHT22;59391;52.504;13.438;2023-01-31T07:29:18;6.00;67.30
71563;DHT22;59391;52.504;13.438;2023-01-31T07:31:44;6.00;67.50
71563;DHT22;59391;52.504;13.438;2023-01-31T07:34:09;6.00;67.70
71563;DHT22;59391;52.504;13.438;2023-01-31T07:36:35;6.10;67.80
71563;DHT22;59391;52.504;13.438;2023-01-31T07:39:01;6.10;67.90
71563;DHT22;59391;52.504;13.438;2023-01-31T07:41:26;6.10;67.50
71563;DHT22;59391;52.504;13.438;2023-01-31T07:43:52;6.00;67.00
71563;DHT22;59391;52.504;13.438;2023-01-31T07:46:18;6.00;67.70
71563;DHT22;59391;52.504;13.438;2023-01-31T07:48:43;6.10;68.10
71563;DHT22;59391;52.504;13.438;2023-01-31T07:51:10;6.10;68.00
71563;DHT22;59391;52.504;13.438;2023-01-31T07:53:37;6.10;68.70
71563;DHT22;59391;52.504;13.438;2023-01-31T07:58:37;6.10;67.80
71563;DHT22;59391;52.504;13.438;2023-01-31T08:01:04;6.10;68.10
71563;DHT22;59391;52.504;13.438;2023-01-31T08:03:49;6.10;68.10
71563;DHT22;59391;52.504;13.438;2023-01-31T08:06:15;6.10;68.40
71563;DHT22;59391;52.504;13.438;2023-01-31T08:08:42;6.20;68.00
71563;DHT22;59391;52.504;13.438;2023-01-31T08:11:08;6.20;68.50
71563;DHT22;59391;52.504;13.438;2023-01-31T08:13:35;6.20;68.00
71563;DHT22;59391;52.504;13.438;2023-01-31T08:16:02;6.20;67.50
71563;DHT22;59391;52.504;13.438;2023-01-31T08:18:29;6.20;68.10
71563;DHT22;59391;52.504;13.438;2023-01-31T08:20:56;6.30;68.20
71563;DHT22;59391;52.504;13.438;2023-01-31T08:23:23;6.30;68.80
71563;DHT22;59391;52.504;13.438;2023-01-31T08:25:48;6.40;68.00
71563;DHT22;59391;52.504;13.438;2023-01-31T08:28:14;6.30;68.30
71563;DHT22;59391;52.504;13.438;2023-01-31T08:30:42;6.40;67.70
71563;DHT22;59391;52.504;13.438;2023-01-31T08:33:09;6.40;67.80
71563;DHT22;59391;52.504;13.438;2023-01-31T08:35:36;6.40;67.30
71563;DHT22;59391;52.504;13.438;2023-01-31T08:38:03;6.40;69.20
71563;DHT22;59391;52.504;13.438;2023-01-31T08:40:30;6.50;69.20
71563;DHT22;59391;52.504;13.438;2023-01-31T08:42:57;6.50;68.70
71563;DHT22;59391;52.504;13.438;2023-01-31T08:45:28;6.50;68.10
71563;DHT22;59391;52.504;13.438;2023-01-31T08:47:58;6.50;68.00
71563;DHT22;59391;52.504;13.438;2023-01-31T08:50:29;6.50;68.40
71563;DHT22;59391;52.504;13.438;2023-01-31T08:53:02;6.50;68.10
71563;DHT22;59391;52.504;13.438;2023-01-31T08:55:30;6.50;68.10
71563;DHT22;59391;52.504;13.438;2023-01-31T08:57:58;6.50;68.40
71563;DHT22;59391;52.504;13.438;2023-01-31T09:00:26;6.50;68.70
71563;DHT22;59391;52.504;13.438;2023-01-31T09:02:57;6.50;67.90
71563;DHT22;59391;52.504;13.438;2023-01-31T09:05:26;6.50;68.60
71563;DHT22;59391;52.504;13.438;2023-01-31T09:07:53;6.50;68.80
71563;DHT22;59391;52.504;13.438;2023-01-31T09:10:20;6.60;69.00
71563;DHT22;59391;52.504;13.438;2023-01-31T09:12:46;6.60;69.10
71563;DHT22;59391;52.504;13.438;2023-01-31T09:15:12;6.60;69.00
71563;DHT22;59391;52.504;13.438;2023-01-31T09:17:39;6.60;68.10
71563;DHT22;59391;52.504;13.438;2023-01-31T09:20:06;6.70;67.90
71563;DHT22;59391;52.504;13.438;2023-01-31T09:22:35;6.70;68.80
71563;DHT22;59391;52.504;13.438;2023-01-31T09:25:01;6.70;68.20
71563;DHT22;59391;52.504;13.438;2023-01-31T09:27:28;6.70;68.20
71563;DHT22;59391;52.504;13.438;2023-01-31T09:29:54;6.80;67.10
71563;DHT22;59391;52.504;13.438;2023-01-31T09:32:20;6.80;69.00
71563;DHT22;59391;52.504;13.438;2023-01-31T09:34:46;6.80;67.90
71563;DHT22;59391;52.504;13.438;2023-01-31T09:37:16;6.80;67.30
71563;DHT22;59391;52.504;13.438;2023-01-31T09:39:41;6.80;67.60
71563;DHT22;59391;52.504;13.438;2023-01-31T09:42:24;6.90;68.10
71563;DHT22;59391;52.504;13.438;2023-01-31T09:44:59;6.90;67.00
71563;DHT22;59391;52.504;13.438;2023-01-31T09:47:50;6.90;67.80
71563;DHT22;59391;52.504;13.438;2023-01-31T09:50:39;7.00;67.30
71563;DHT22;59391;52.504;13.438;2023-01-31T09:53:15;7.00;66.40
71563;DHT22;59391;52.504;13.438;2023-01-31T09:56:09;7.10;68.20
71563;DHT22;59391;52.504;13.438;2023-01-31T09:59:18;7.10;68.00
71563;DHT22;59391;52.504;13.438;2023-01-31T10:11:06;7.30;65.50
71563;DHT22;59391;52.504;13.438;2023-01-31T10:13:44;7.30;65.70
71563;DHT22;59391;52.504;13.438;2023-01-31T10:16:24;7.30;66.20
71563;DHT22;59391;52.504;13.438;2023-01-31T10:18:58;7.30;65.50
71563;DHT22;59391;52.504;13.438;2023-01-31T10:21:44;7.30;65.40
71563;DHT22;59391;52.504;13.438;2023-01-31T10:24:30;7.30;65.20
71563;DHT22;59391;52.504;13.438;2023-01-31T10:27:30;7.40;65.10
71563;DHT22;59391;52.504;13.438;2023-01-31T10:40:15;7.40;64.30
71563;DHT22;59391;52.504;13.438;2023-01-31T10:58:19;7.30;66.10
71563;DHT22;59391;52.504;13.438;2023-01-31T11:00:57;7.30;66.80
71563;DHT22;59391;52.504;13.438;2023-01-31T11:07:01;7.20;65.50
71563;DHT22;59391;52.504;13.438;2023-01-31T11:09:32;7.30;66.40
71563;DHT22;59391;52.504;13.438;2023-01-31T11:12:10;7.30;66.60
71563;DHT22;59391;52.504;13.438;2023-01-31T11:15:05;7.40;66.70
71563;DHT22;59391;52.504;13.438;2023-01-31T11:17:49;7.50;65.30
71563;DHT22;59391;52.504;13.438;2023-01-31T11:22:56;7.60;64.80
71563;DHT22;59391;52.504;13.438;2023-01-31T11:25:24;7.50;64.30
71563;DHT22;59391;52.504;13.438;2023-01-31T11:27:56;7.50;64.50
71563;DHT22;59391;52.504;13.438;2023-01-31T11:36:31;7.60;66.10
71563;DHT22;59391;52.504;13.438;2023-01-31T11:39:53;7.60;66.80
71563;DHT22;59391;52.504;13.438;2023-01-31T11:54:10;7.30;68.50
71563;DHT22;59391;52.504;13.438;2023-01-31T11:57:39;7.30;68.60
71563;DHT22;59391;52.504;13.438;2023-01-31T12:01:13;7.20;68.70
71563;DHT22;59391;52.504;13.438;2023-01-31T12:07:25;7.30;68.00
71563;DHT22;59391;52.504;13.438;2023-01-31T12:09:59;7.30;66.90
71563;DHT22;59391;52.504;13.438;2023-01-31T12:12:30;7.30;67.70
71563;DHT22;59391;52.504;13.438;2023-01-31T12:15:26;7.30;68.70
71563;DHT22;59391;52.504;13.438;2023-01-31T12:17:57;7.30;69.70
71563;DHT22;59391;52.504;13.438;2023-01-31T12:21:33;7.30;70.50
71563;DHT22;59391;52.504;13.438;2023-01-31T12:40:55;6.40;73.60
71563;DHT22;59391;52.504;13.438;2023-01-31T12:50:34;6.30;75.80
71563;DHT22;59391;52.504;13.438;2023-01-31T12:57:00;6.30;76.60
71563;DHT22;59391;52.504;13.438;2023-01-31T13:05:59;6.20;77.60
71563;DHT22;59391;52.504;13.438;2023-01-31T13:08:28;6.10;77.80
71563;DHT22;59391;52.504;13.438;2023-01-31T13:10:58;6.10;77.80
71563;DHT22;59391;52.504;13.438;2023-01-31T13:13:37;6.10;78.10
71563;DHT22;59391;52.504;13.438;2023-01-31T13:16:23;6.10;78.50
71563;DHT22;59391;52.504;13.438;2023-01-31T13:18:55;6.10;78.90
71563;DHT22;59391;52.504;13.438;2023-01-31T13:21:29;6.10;78.90
71563;DHT22;59391;52.504;13.438;2023-01-31T13:24:11;6.10;79.10
71563;DHT22;59391;52.504;13.438;2023-01-31T13:27:03;6.00;79.30
71563;DHT22;59391;52.504;13.438;2023-01-31T13:29:56;6.00;79.40
71563;DHT22;59391;52.504;13.438;2023-01-31T13:35:21;6.00;79.70
71563;DHT22;59391;52.504;13.438;2023-01-31T13:37:56;6.10;79.70
71563;DHT22;59391;52.504;13.438;2023-01-31T13:40:28;6.00;79.50
71563;DHT22;59391;52.504;13.438;2023-01-31T13:43:02;6.00;79.80
71563;DHT22;59391;52.504;13.438;2023-01-31T13:45:51;6.00;80.20
71563;DHT22;59391;52.504;13.438;2023-01-31T13:48:29;6.00;80.20
71563;DHT22;59391;52.504;13.438;2023-01-31T13:51:13;6.00;80.30
71563;DHT22;59391;52.504;13.438;2023-01-31T13:56:48;6.00;80.30
71563;DHT22;59391;52.504;13.438;2023-01-31T13:59:24;6.10;80.40
71563;DHT22;59391;52.504;13.438;2023-01-31T14:02:00;6.10;79.80
71563;DHT22;59391;52.504;13.438;2023-01-31T14:04:33;6.10;80.20
71563;DHT22;59391;52.504;13.438;2023-01-31T14:09:38;6.10;80.50
71563;DHT22;59391;52.504;13.438;2023-01-31T14:14:43;6.20;80.40
71563;DHT22;59391;52.504;13.438;2023-01-31T14:20:01;6.10;80.10
71563;DHT22;59391;52.504;13.438;2023-01-31T14:22:38;6.20;79.60
71563;DHT22;59391;52.504;13.438;2023-01-31T14:30:39;6.20;80.60
71563;DHT22;59391;52.504;13.438;2023-01-31T14:35:59;6.20;80.50
71563;DHT22;59391;52.504;13.438;2023-01-31T14:41:33;6.20;81.20
71563;DHT22;59391;52.504;13.438;2023-01-31T14:47:28;6.30;80.80
71563;DHT22;59391;52.504;13.438;2023-01-31T14:50:23;6.30;81.20
71563;DHT22;59391;52.504;13.438;2023-01-31T14:53:32;6.30;80.80
71563;DHT22;59391;52.504;13.438;2023-01-31T14:59:23;6.30;81.00
71563;DHT22;59391;52.504;13.438;2023-01-31T15:01:53;6.40;81.00
71563;DHT22;59391;52.504;13.438;2023-01-31T15:04:23;6.30;80.60
71563;DHT22;59391;52.504;13.438;2023-01-31T15:06:52;6.40;81.80
71563;DHT22;59391;52.504;13.438;2023-01-31T15:11:53;6.40;80.80
71563;DHT22;59391;52.504;13.438;2023-01-31T15:14:39;6.40;81.10
71563;DHT22;59391;52.504;13.438;2023-01-31T15:17:22;6.50;80.90
71563;DHT22;59391;52.504;13.438;2023-01-31T15:19:57;6.50;80.80
71563;DHT22;59391;52.504;13.438;2023-01-31T15:22:38;6.50;80.70
71563;DHT22;59391;52.504;13.438;2023-01-31T15:25:27;6.50;80.90
71563;DHT22;59391;52.504;13.438;2023-01-31T15:27:58;6.60;81.80
71563;DHT22;59391;52.504;13.438;2023-01-31T15:30:27;6.60;80.70
71563;DHT22;59391;52.504;13.438;2023-01-31T15:36:06;6.60;81.00
71563;DHT22;59391;52.504;13.438;2023-01-31T15:38:52;6.70;81.30
71563;DHT22;59391;52.504;13.438;2023-01-31T15:41:41;6.70;80.70
71563;DHT22;59391;52.504;13.438;2023-01-31T15:44:26;6.70;81.70
71563;DHT22;59391;52.504;13.438;2023-01-31T15:46:55;6.80;81.20
71563;DHT22;59391;52.504;13.438;2023-01-31T15:49:30;6.80;80.40
71563;DHT22;59391;52.504;13.438;2023-01-31T15:52:19;6.80;80.80
71563;DHT22;59391;52.504;13.438;2023-01-31T15:54:52;6.80;80.70
71563;DHT22;59391;52.504;13.438;2023-01-31T15:57:34;6.80;80.80
71563;DHT22;59391;52.504;13.438;2023-01-31T16:00:05;6.80;80.00
71563;DHT22;59391;52.504;13.438;2023-01-31T16:02:31;6.80;81.60
71563;DHT22;59391;52.504;13.438;2023-01-31T16:04:58;6.90;81.20
71563;DHT22;59391;52.504;13.438;2023-01-31T16:07:26;6.80;81.00
71563;DHT22;59391;52.504;13.438;2023-01-31T16:09:58;6.90;80.80
71563;DHT22;59391;52.504;13.438;2023-01-31T16:12:27;6.90;80.80
71563;DHT22;59391;52.504;13.438;2023-01-31T16:14:57;6.90;81.30
71563;DHT22;59391;52.504;13.438;2023-01-31T16:17:30;6.90;81.30
71563;DHT22;59391;52.504;13.438;2023-01-31T16:19:59;7.00;81.50
71563;DHT22;59391;52.504;13.438;2023-01-31T16:22:30;7.00;80.40
71563;DHT22;59391;52.504;13.438;2023-01-31T16:24:59;6.90;80.80
71563;DHT22;59391;52.504;13.438;2023-01-31T16:27:29;6.90;81.20
71563;DHT22;59391;52.504;13.438;2023-01-31T16:35:03;7.00;81.60
71563;DHT22;59391;52.504;13.438;2023-01-31T16:49:36;7.10;81.20
71563;DHT22;59391;52.504;13.438;2023-01-31T16:52:27;7.20;81.30
71563;DHT22;59391;52.504;13.438;2023-01-31T16:54:54;7.20;80.30
71563;DHT22;59391;52.504;13.438;2023-01-31T17:00:21;7.20;81.00
71563;DHT22;59391;52.504;13.438;2023-01-31T17:02:55;7.30;80.90
71563;DHT22;59391;52.504;13.438;2023-01-31T17:05:42;7.30;80.40
71563;DHT22;59391;52.504;13.438;2023-01-31T17:08:17;7.30;79.40
71563;DHT22;59391;52.504;13.438;2023-01-31T17:10:45;7.30;80.60
71563;DHT22;59391;52.504;13.438;2023-01-31T17:13:19;7.40;80.60
71563;DHT22;59391;52.504;13.438;2023-01-31T17:15:49;7.40;80.40
71563;DHT22;59391;52.504;13.438;2023-01-31T17:18:19;7.40;80.00
71563;DHT22;59391;52.504;13.438;2023-01-31T17:20:54;7.40;79.40
71563;DHT22;59391;52.504;13.438;2023-01-31T17:23:47;7.40;80.20
71563;DHT22;59391;52.504;13.438;2023-01-31T17:26:38;7.40;80.90
71563;DHT22;59391;52.504;13.438;2023-01-31T17:29:42;7.40;79.60
71563;DHT22;59391;52.504;13.438;2023-01-31T17:36:21;7.40;79.60
71563;DHT22;59391;52.504;13.438;2023-01-31T17:39:32;7.40;79.00
71563;DHT22;59391;52.504;13.438;2023-01-31T17:42:01;7.30;80.60
71563;DHT22;59391;52.504;13.438;2023-01-31T17:44:43;7.40;80.80
71563;DHT22;59391;52.504;13.438;2023-01-31T17:47:15;7.30;80.70
71563;DHT22;59391;52.504;13.438;2023-01-31T17:49:51;7.30;80.00
71563;DHT22;59391;52.504;13.438;2023-01-31T17:52:18;7.30;78.40
71563;DHT22;59391;52.504;13.438;2023-01-31T17:54:51;7.30;80.70
71563;DHT22;59391;52.504;13.438;2023-01-31T17:57:37;7.40;79.70
71563;DHT22;59391;52.504;13.438;2023-01-31T18:00:05;7.40;80.10
71563;DHT22;59391;52.504;13.438;2023-01-31T18:02:33;7.40;81.20
71563;DHT22;59391;52.504;13.438;2023-01-31T18:05:01;7.50;80.60
71563;DHT22;59391;52.504;13.438;2023-01-31T18:07:39;7.50;80.90
71563;DHT22;59391;52.504;13.438;2023-01-31T18:10:08;7.50;80.80
71563;DHT22;59391;52.504;13.438;2023-01-31T18:12:37;7.60;81.40
71563;DHT22;59391;52.504;13.438;2023-01-31T18:15:03;7.60;81.40
71563;DHT22;59391;52.504;13.438;2023-01-31T18:17:36;7.60;78.90
71563;DHT22;59391;52.504;13.438;2023-01-31T18:20:12;7.60;80.10
71563;DHT22;59391;52.504;13.438;2023-01-31T18:23:02;7.60;80.60
71563;DHT22;59391;52.504;13.438;2023-01-31T18:29:37;7.70;80.30
71563;DHT22;59391;52.504;13.438;2023-01-31T18:32:26;7.70;78.00
71563;DHT22;59391;52.504;13.438;2023-01-31T18:42:03;7.80;77.00
71563;DHT22;59391;52.504;13.438;2023-01-31T18:45:09;7.80;79.30
71563;DHT22;59391;52.504;13.438;2023-01-31T18:47:43;7.90;80.70
71563;DHT22;59391;52.504;13.438;2023-01-31T18:50:09;7.90;78.00
71563;DHT22;59391;52.504;13.438;2023-01-31T18:52:44;7.90;77.10
71563;DHT22;59391;52.504;13.438;2023-01-31T18:55:19;7.90;76.60
71563;DHT22;59391;52.504;13.438;2023-01-31T18:57:51;7.90;79.50
71563;DHT22;59391;52.504;13.438;2023-01-31T19:00:46;8.00;78.60
71563;DHT22;59391;52.504;13.438;2023-01-31T19:03:25;8.00;78.90
71563;DHT22;59391;52.504;13.438;2023-01-31T19:08:57;8.00;79.10
71563;DHT22;59391;52.504;13.438;2023-01-31T19:11:39;8.00;76.60
71563;DHT22;59391;52.504;13.438;2023-01-31T19:14:23;8.00;77.40
71563;DHT22;59391;52.504;13.438;2023-01-31T19:16:52;8.00;77.60
71563;DHT22;59391;52.504;13.438;2023-01-31T19:19:33;8.00;78.30
71563;DHT22;59391;52.504;13.438;2023-01-31T19:22:28;8.10;78.30
71563;DHT22;59391;52.504;13.438;2023-01-31T19:24:54;8.10;75.60
71563;DHT22;59391;52.504;13.438;2023-01-31T19:27:25;8.10;77.50
71563;DHT22;59391;52.504;13.438;2023-01-31T19:29:54;8.10;73.90
71563;DHT22;59391;52.504;13.438;2023-01-31T19:32:24;8.00;72.30
71563;DHT22;59391;52.504;13.438;2023-01-31T19:34:50;7.70;68.50
71563;DHT22;59391;52.504;13.438;2023-01-31T19:37:24;7.40;71.20
71563;DHT22;59391;52.504;13.438;2023-01-31T19:40:00;7.20;70.00